Time;durP1;ratioP1;P1;durP2;ratioP2;P2;SDS_P1;SDS_P2;PMS_P1;PMS_P2;Temp;Humidity;BMP_temperature;BMP_pressure;BME280_temperature;BME280_humidity;BME280_pressure;Samples;Min_cycle;Max_cycle;Signal;HPM_P1;HPM_P2
2023/01/31 00:01:23;;;;;;;;;;;;;;;18.63;28.21;97350.03;5076179;28;19923;-86
2023/01/31 00:03:53;;;;;;;;;;;;;;;18.29;28.70;97340.88;5058689;28;20359;-86
2023/01/31 00:06:29;;;;;;;;;;;;;;;16.59;31.55;97357.91;5071124;28;19923;-87
2023/01/31 00:08:55;;;;;;;;;;;;;;;17.47;30.49;97342.75;5076560;28;19923;-87
2023/01/31 00:11:23;;;;;;;;;;;;;;;18.19;29.06;97348.13;5076387;28;20355;-86
2023/01/31 00:13:49;;;;;;;;;;;;;;;17.73;29.23;97340.22;5076623;28;19966;-87
2023/01/31 00:16:16;;;;;;;;;;;;;;;19.09;27.98;97349.47;5075355;28;19922;-86
2023/01/31 00:18:42;;;;;;;;;;;;;;;19.37;26.88;97354.66;5056451;28;19917;-86
2023/01/31 00:21:10;;;;;;;;;;;;;;;19.52;27.01;97364.38;5056294;28;19978;-86
2023/01/31 00:23:36;;;;;;;;;;;;;;;19.55;27.19;97354.41;5056221;28;19916;-86
2023/01/31 00:26:22;;;;;;;;;;;;;;;17.53;29.50;97360.56;5055905;28;19924;-87
2023/01/31 00:28:48;;;;;;;;;;;;;;;17.54;29.50;97362.97;5055569;28;19925;-86
2023/01/31 00:31:15;;;;;;;;;;;;;;;18.66;28.28;97365.91;5055882;28;20296;-86
2023/01/31 00:33:42;;;;;;;;;;;;;;;18.26;28.75;97366.69;5056077;28;19917;-85
2023/01/31 00:36:10;;;;;;;;;;;;;;;16.56;31.15;97372.56;5056057;28;19928;-86
2023/01/31 00:38:36;;;;;;;;;;;;;;;17.46;29.84;97377.25;5055629;28;19999;-86
2023/01/31 00:41:03;;;;;;;;;;;;;;;16.94;30.64;97388.22;5055888;28;19959;-86
2023/01/31 00:43:30;;;;;;;;;;;;;;;17.18;30.41;97383.75;5055896;28;20063;-86
2023/01/31 00:45:56;;;;;;;;;;;;;;;18.03;29.57;97375.66;5055689;28;19923;-86
2023/01/31 00:48:22;;;;;;;;;;;;;;;17.85;29.56;97388.91;5056100;28;19968;-86
2023/01/31 00:50:48;;;;;;;;;;;;;;;17.75;29.80;97392.53;5055972;28;19917;-85
2023/01/31 00:53:14;;;;;;;;;;;;;;;19.20;27.24;97383.50;5054357;28;20003;-86
2023/01/31 00:55:40;;;;;;;;;;;;;;;18.49;28.05;97389.13;5055260;28;20004;-86
2023/01/31 00:58:06;;;;;;;;;;;;;;;18.46;28.39;97384.41;5054700;28;19924;-86
2023/01/31 01:00:32;;;;;;;;;;;;;;;19.06;27.37;97373.34;5055194;28;19925;-86
2023/01/31 01:02:58;;;;;;;;;;;;;;;19.49;26.90;97375.56;5055066;28;19917;-86
2023/01/31 01:05:24;;;;;;;;;;;;;;;18.41;28.31;97380.03;5055191;28;19916;-86
2023/01/31 01:07:50;;;;;;;;;;;;;;;18.30;28.76;97384.91;5055936;28;19917;-87
2023/01/31 01:10:16;;;;;;;;;;;;;;;18.67;27.99;97388.94;5055507;28;20308;-86
2023/01/31 01:12:42;;;;;;;;;;;;;;;18.60;27.91;97382.25;5055000;28;20281;-86
2023/01/31 01:15:08;;;;;;;;;;;;;;;18.55;28.07;97388.25;5055550;28;19917;-85
2023/01/31 01:17:34;;;;;;;;;;;;;;;19.19;27.28;97390.25;5055407;28;19932;-86
2023/01/31 01:20:02;;;;;;;;;;;;;;;17.95;29.00;97404.66;5055151;28;20046;-86
2023/01/31 01:22:29;;;;;;;;;;;;;;;17.82;29.39;97396.06;5055167;28;19925;-85
2023/01/31 01:24:55;;;;;;;;;;;;;;;17.45;29.66;97408.97;5072844;28;19917;-85
2023/01/31 01:27:22;;;;;;;;;;;;;;;16.90;30.90;97403.28;5074513;28;19923;-87
2023/01/31 01:29:48;;;;;;;;;;;;;;;16.99;30.48;97406.47;5074345;28;19924;-86
2023/01/31 01:32:14;;;;;;;;;;;;;;;16.27;31.98;97415.31;5074831;28;19916;-86
2023/01/31 01:34:40;;;;;;;;;;;;;;;16.77;30.99;97413.25;5074557;28;19917;-86
2023/01/31 01:37:10;;;;;;;;;;;;;;;17.75;29.58;97410.00;5073299;28;20291;-85
2023/01/31 01:39:37;;;;;;;;;;;;;;;17.58;29.77;97408.13;5074622;28;19947;-86
2023/01/31 01:42:04;;;;;;;;;;;;;;;17.17;30.83;97410.72;5055046;28;19923;-85
2023/01/31 01:44:45;;;;;;;;;;;;;;;16.89;31.17;97426.69;5056071;28;20015;-86
2023/01/31 01:47:31;;;;;;;;;;;;;;;18.11;28.86;97418.06;5074398;28;19969;-85
2023/01/31 01:50:11;;;;;;;;;;;;;;;18.65;28.29;97416.38;5067266;28;19917;-85
2023/01/31 01:52:40;;;;;;;;;;;;;;;19.69;26.50;97424.59;5072864;28;19924;-85
2023/01/31 01:55:11;;;;;;;;;;;;;;;20.08;26.20;97423.97;5074692;28;19924;-85
2023/01/31 01:57:39;;;;;;;;;;;;;;;19.43;26.96;97428.16;5066230;28;19917;-85
2023/01/31 02:00:06;;;;;;;;;;;;;;;18.96;27.43;97429.13;5054151;28;20380;-85
2023/01/31 02:02:32;;;;;;;;;;;;;;;17.95;28.99;97440.78;5053955;28;19930;-85
2023/01/31 02:04:58;;;;;;;;;;;;;;;17.02;30.71;97436.13;5070997;28;20094;-85
2023/01/31 02:07:25;;;;;;;;;;;;;;;17.85;29.67;97436.13;5074080;28;20015;-85
2023/01/31 02:09:56;;;;;;;;;;;;;;;18.54;28.56;97435.94;5073323;28;20364;-85
2023/01/31 02:12:22;;;;;;;;;;;;;;;17.93;29.36;97443.97;5073984;28;19923;-86
2023/01/31 02:14:49;;;;;;;;;;;;;;;18.67;28.09;97436.97;5063857;28;20333;-85
2023/01/31 02:17:16;;;;;;;;;;;;;;;18.86;28.03;97446.69;5054200;28;20386;-85
2023/01/31 02:20:02;;;;;;;;;;;;;;;17.43;30.47;97455.78;5053755;28;19921;-85
2023/01/31 02:22:38;;;;;;;;;;;;;;;18.71;28.00;97450.84;5057044;28;19974;-85
2023/01/31 02:25:13;;;;;;;;;;;;;;;16.25;32.16;97459.25;5068513;28;19969;-86
2023/01/31 02:27:42;;;;;;;;;;;;;;;16.88;30.79;97455.59;5073915;28;19923;-85
2023/01/31 02:30:08;;;;;;;;;;;;;;;17.33;30.24;97462.16;5073475;28;19929;-85
2023/01/31 02:32:43;;;;;;;;;;;;;;;16.47;32.14;97472.69;5072947;28;20337;-85
2023/01/31 02:35:31;;;;;;;;;;;;;;;16.62;31.56;97475.47;5058413;28;19959;-85
2023/01/31 02:37:57;;;;;;;;;;;;;;;16.66;31.89;97476.25;5053542;28;19913;-85
2023/01/31 02:40:23;;;;;;;;;;;;;;;16.77;31.27;97486.13;5053338;28;19923;-85
2023/01/31 02:42:56;;;;;;;;;;;;;;;17.07;31.03;97483.66;5053634;28;19916;-85
2023/01/31 02:45:45;;;;;;;;;;;;;;;16.89;31.64;97493.22;5053431;28;19917;-85
2023/01/31 02:48:14;;;;;;;;;;;;;;;17.64;30.18;97484.22;5039980;28;19959;-85
2023/01/31 02:50:44;;;;;;;;;;;;;;;17.91;29.42;97490.00;5053620;28;19917;-86
2023/01/31 02:53:14;;;;;;;;;;;;;;;16.77;31.05;97488.09;5052308;28;19916;-85
2023/01/31 02:58:33;;;;;;;;;;;;;;;18.27;28.97;97504.44;5053511;28;20339;-86
2023/01/31 03:01:02;;;;;;;;;;;;;;;18.73;28.25;97509.63;5056361;28;19920;-85
2023/01/31 03:03:30;;;;;;;;;;;;;;;18.87;27.50;97504.72;5073547;28;20011;-86
2023/01/31 03:06:34;;;;;;;;;;;;;;;18.27;29.04;97513.56;5056492;28;20345;-86
2023/01/31 03:09:20;;;;;;;;;;;;;;;19.34;27.17;97508.56;5053241;28;19920;-85
2023/01/31 03:11:54;;;;;;;;;;;;;;;18.04;28.76;97498.66;5051845;28;19917;-86
2023/01/31 03:14:29;;;;;;;;;;;;;;;18.75;27.36;97512.78;5053332;28;19917;-85
2023/01/31 03:17:31;;;;;;;;;;;;;;;19.68;26.70;97530.81;5053650;28;19923;-86
2023/01/31 03:20:17;;;;;;;;;;;;;;;19.45;26.79;97523.16;5054648;28;19931;-86
2023/01/31 03:22:56;;;;;;;;;;;;;;;18.93;27.25;97535.63;5065018;28;19916;-86
2023/01/31 03:25:23;;;;;;;;;;;;;;;18.36;27.91;97535.31;5077737;28;20011;-86
2023/01/31 03:27:54;;;;;;;;;;;;;;;18.76;27.59;97536.63;5077291;28;19924;-86
2023/01/31 03:30:26;;;;;;;;;;;;;;;18.98;26.71;97527.63;5076933;28;19928;-86
2023/01/31 03:32:57;;;;;;;;;;;;;;;18.76;27.41;97539.41;5076832;28;19916;-87
2023/01/31 03:35:26;;;;;;;;;;;;;;;19.33;26.92;97543.16;5059868;28;20353;-86
2023/01/31 03:37:56;;;;;;;;;;;;;;;19.32;26.79;97549.94;5056597;28;20360;-86
2023/01/31 03:40:29;;;;;;;;;;;;;;;19.04;26.86;97553.78;5057791;28;19964;-86
2023/01/31 03:43:02;;;;;;;;;;;;;;;19.33;26.49;97555.09;5056984;28;19960;-86
2023/01/31 03:45:30;;;;;;;;;;;;;;;19.60;26.36;97555.22;5056646;28;19952;-86
2023/01/31 03:47:58;;;;;;;;;;;;;;;18.78;27.34;97554.47;5059398;28;19931;-87
2023/01/31 03:50:29;;;;;;;;;;;;;;;19.36;26.89;97567.41;5076841;28;19924;-86
2023/01/31 03:52:59;;;;;;;;;;;;;;;18.39;28.13;97568.63;5076676;28;19917;-86
2023/01/31 03:55:32;;;;;;;;;;;;;;;19.46;26.21;97574.88;5077051;28;19917;-86
2023/01/31 03:57:59;;;;;;;;;;;;;;;20.15;25.62;97576.34;5057763;28;19960;-86
2023/01/31 04:00:26;;;;;;;;;;;;;;;20.40;25.30;97576.81;5056519;28;20018;-86
2023/01/31 04:02:56;;;;;;;;;;;;;;;19.22;26.61;97575.88;5056288;28;20408;-86
2023/01/31 04:05:23;;;;;;;;;;;;;;;18.95;26.58;97581.31;5056139;28;19921;-86
2023/01/31 04:07:49;;;;;;;;;;;;;;;17.53;28.71;97588.16;5056190;28;20296;-87
2023/01/31 04:10:17;;;;;;;;;;;;;;;17.78;28.92;97595.19;5056394;28;19924;-87
2023/01/31 04:12:44;;;;;;;;;;;;;;;17.69;29.16;97588.50;5056423;28;19958;-86
2023/01/31 04:15:10;;;;;;;;;;;;;;;17.06;29.79;97593.00;5075945;28;19916;-86
2023/01/31 04:17:36;;;;;;;;;;;;;;;16.79;30.54;97599.38;5076249;28;20011;-87
2023/01/31 04:20:04;;;;;;;;;;;;;;;15.70;32.22;97609.06;5058887;28;19916;-87
2023/01/31 04:22:30;;;;;;;;;;;;;;;14.37;34.79;97612.50;5054760;28;19920;-86
2023/01/31 04:24:56;;;;;;;;;;;;;;;14.13;34.83;97617.72;5056469;28;20353;-87
2023/01/31 04:27:22;;;;;;;;;;;;;;;14.20;35.27;97623.31;5056531;28;19916;-87
2023/01/31 04:29:48;;;;;;;;;;;;;;;14.84;33.40;97625.50;5056324;28;20396;-86
2023/01/31 04:32:15;;;;;;;;;;;;;;;15.76;32.73;97609.47;5075641;28;19923;-87
2023/01/31 04:34:41;;;;;;;;;;;;;;;16.28;31.96;97619.91;5075865;28;19916;-86
2023/01/31 04:37:07;;;;;;;;;;;;;;;15.71;32.05;97629.19;5075435;28;19927;-87
2023/01/31 04:39:33;;;;;;;;;;;;;;;16.05;31.40;97624.19;5075898;28;20011;-86
2023/01/31 04:41:59;;;;;;;;;;;;;;;16.06;31.13;97623.78;5075803;28;19924;-86
2023/01/31 04:44:25;;;;;;;;;;;;;;;16.73;29.96;97634.22;5075765;28;19916;-86
2023/01/31 04:46:51;;;;;;;;;;;;;;;16.28;30.70;97636.53;5074444;28;19917;-86
2023/01/31 04:49:17;;;;;;;;;;;;;;;16.23;31.11;97650.75;5069362;28;20043;-86
2023/01/31 04:51:43;;;;;;;;;;;;;;;17.21;29.73;97658.38;5055673;28;20321;-86
2023/01/31 04:54:09;;;;;;;;;;;;;;;17.67;29.18;97665.81;5055604;28;19967;-87
2023/01/31 04:56:35;;;;;;;;;;;;;;;16.56;30.83;97669.06;5057370;28;19917;-86
2023/01/31 04:59:01;;;;;;;;;;;;;;;17.57;29.51;97677.78;5062413;28;20384;-86
2023/01/31 05:01:28;;;;;;;;;;;;;;;19.21;27.03;97668.91;5075351;28;19924;-86
2023/01/31 05:03:54;;;;;;;;;;;;;;;19.38;26.64;97668.00;5074162;28;19916;-86
2023/01/31 05:06:20;;;;;;;;;;;;;;;18.80;27.74;97673.63;5055353;28;19917;-87
2023/01/31 05:08:47;;;;;;;;;;;;;;;18.32;27.62;97673.53;5055437;28;19917;-87
2023/01/31 05:11:13;;;;;;;;;;;;;;;17.51;29.45;97691.25;5055103;28;20007;-86
2023/01/31 05:13:39;;;;;;;;;;;;;;;18.24;28.22;97686.66;5055059;28;20364;-87
2023/01/31 05:16:06;;;;;;;;;;;;;;;18.24;27.59;97691.41;5055171;28;19913;-87
2023/01/31 05:18:34;;;;;;;;;;;;;;;18.93;26.93;97685.84;5054706;28;20502;-86
2023/01/31 05:21:01;;;;;;;;;;;;;;;18.22;27.83;97675.16;5056907;28;19913;-87
2023/01/31 05:23:27;;;;;;;;;;;;;;;17.47;28.85;97690.44;5075404;28;19924;-86
2023/01/31 05:25:53;;;;;;;;;;;;;;;17.34;29.21;97700.34;5075339;28;19950;-86
2023/01/31 05:28:19;;;;;;;;;;;;;;;17.28;29.26;97705.53;5074786;28;19959;-87
2023/01/31 05:30:45;;;;;;;;;;;;;;;17.76;28.70;97710.66;5075026;28;19920;-86
2023/01/31 05:33:12;;;;;;;;;;;;;;;16.35;31.00;97730.72;5074673;28;19956;-87
2023/01/31 05:35:38;;;;;;;;;;;;;;;17.31;29.10;97719.78;5075028;28;19923;-87
2023/01/31 05:38:04;;;;;;;;;;;;;;;15.45;31.94;97727.09;5071568;28;19924;-89
2023/01/31 05:40:30;;;;;;;;;;;;;;;14.93;33.32;97730.22;5054806;28;20011;-86
2023/01/31 05:42:58;;;;;;;;;;;;;;;16.81;30.45;97733.63;5054462;28;19960;-86
2023/01/31 05:45:24;;;;;;;;;;;;;;;17.63;28.31;97729.69;5054538;28;19962;-86
2023/01/31 05:47:50;;;;;;;;;;;;;;;18.72;26.95;97741.63;5066146;28;19921;-87
2023/01/31 05:50:17;;;;;;;;;;;;;;;18.19;27.69;97725.16;5054487;28;19917;-87
2023/01/31 05:52:48;;;;;;;;;;;;;;;17.27;28.81;97736.44;5054532;28;19925;-86
2023/01/31 05:55:14;;;;;;;;;;;;;;;17.89;28.25;97750.66;5055865;28;19924;-87
2023/01/31 05:57:40;;;;;;;;;;;;;;;18.19;27.50;97747.41;5054646;28;19917;-87
2023/01/31 06:00:06;;;;;;;;;;;;;;;17.60;28.61;97752.69;5054824;28;19975;-87
2023/01/31 06:02:32;;;;;;;;;;;;;;;17.23;29.21;97769.75;5053782;28;19920;-87
2023/01/31 06:04:58;;;;;;;;;;;;;;;16.92;29.42;97758.63;5054686;28;20277;-87
2023/01/31 06:07:24;;;;;;;;;;;;;;;17.30;28.48;97752.28;5054262;28;20026;-87
2023/01/31 06:09:50;;;;;;;;;;;;;;;17.68;28.46;97764.59;5054103;28;20034;-87
2023/01/31 06:12:16;;;;;;;;;;;;;;;17.41;28.79;97761.41;5054914;28;20499;-87
2023/01/31 06:14:43;;;;;;;;;;;;;;;16.50;30.43;97775.88;5053942;28;19916;-87
2023/01/31 06:17:09;;;;;;;;;;;;;;;16.49;30.20;97788.16;5053725;28;19923;-87
2023/01/31 06:19:35;;;;;;;;;;;;;;;16.56;30.42;97782.69;5054504;28;20007;-87
2023/01/31 06:22:01;;;;;;;;;;;;;;;16.72;30.56;97794.22;5059258;28;19917;-87
2023/01/31 06:24:27;;;;;;;;;;;;;;;16.73;30.50;97801.34;5053967;28;19917;-87
2023/01/31 06:26:53;;;;;;;;;;;;;;;18.97;27.17;97801.50;5062676;28;19962;-87
2023/01/31 06:29:19;;;;;;;;;;;;;;;19.42;26.11;97809.97;5073020;28;20090;-87
2023/01/31 06:31:45;;;;;;;;;;;;;;;17.56;28.48;97809.41;5074092;28;19970;-87
2023/01/31 06:34:11;;;;;;;;;;;;;;;18.58;27.48;97818.34;5073975;28;19964;-87
2023/01/31 06:36:37;;;;;;;;;;;;;;;18.00;27.93;97818.09;5073766;28;19916;-87
2023/01/31 06:39:03;;;;;;;;;;;;;;;17.76;28.47;97818.94;5063020;28;19916;-87
2023/01/31 06:41:29;;;;;;;;;;;;;;;18.04;28.01;97818.09;5053848;28;19927;-87
2023/01/31 06:43:55;;;;;;;;;;;;;;;17.93;28.37;97816.13;5053740;28;19924;-87
2023/01/31 06:46:21;;;;;;;;;;;;;;;17.44;29.34;97820.88;5054094;28;19936;-87
2023/01/31 06:48:47;;;;;;;;;;;;;;;18.36;27.38;97833.50;5056643;28;20292;-87
2023/01/31 06:51:14;;;;;;;;;;;;;;;19.53;25.87;97838.50;5073740;28;19916;-87
2023/01/31 06:53:40;;;;;;;;;;;;;;;18.35;27.28;97845.81;5073367;28;19930;-87
2023/01/31 06:56:07;;;;;;;;;;;;;;;17.13;29.42;97850.16;5066881;28;20375;-87
2023/01/31 06:58:33;;;;;;;;;;;;;;;17.78;28.07;97853.41;5053626;28;19987;-87
2023/01/31 07:01:09;;;;;;;;;;;;;;;18.27;27.37;97855.38;5053598;28;19921;-87
2023/01/31 07:03:36;;;;;;;;;;;;;;;18.09;28.20;97860.13;5054100;28;19916;-87
2023/01/31 07:06:02;;;;;;;;;;;;;;;18.29;27.29;97878.00;5053461;28;19916;-87
2023/01/31 07:08:28;;;;;;;;;;;;;;;18.94;26.73;97879.38;5053610;28;19917;-86
2023/01/31 07:10:54;;;;;;;;;;;;;;;18.18;27.31;97882.75;5053343;28;19916;-88
2023/01/31 07:13:21;;;;;;;;;;;;;;;18.12;27.75;97889.91;5053251;28;19939;-87
2023/01/31 07:15:47;;;;;;;;;;;;;;;18.63;26.54;97897.78;5052981;28;20398;-87
2023/01/31 07:18:13;;;;;;;;;;;;;;;17.76;28.22;97899.47;5060703;28;20393;-88
2023/01/31 07:20:39;;;;;;;;;;;;;;;18.16;27.62;97899.03;5065687;28;20015;-87
2023/01/31 07:23:05;;;;;;;;;;;;;;;18.50;27.42;97903.00;5053385;28;19925;-87
2023/01/31 07:25:32;;;;;;;;;;;;;;;16.88;29.19;97913.06;5067886;28;20396;-87
2023/01/31 07:27:59;;;;;;;;;;;;;;;17.87;27.96;97917.72;5073708;28;20025;-87
2023/01/31 07:30:25;;;;;;;;;;;;;;;17.52;28.24;97917.66;5072930;28;19924;-88
2023/01/31 07:32:51;;;;;;;;;;;;;;;16.61;29.94;97918.09;5073366;28;19971;-87
2023/01/31 07:35:18;;;;;;;;;;;;;;;17.89;27.96;97912.56;5073525;28;19916;-87
2023/01/31 07:37:44;;;;;;;;;;;;;;;16.62;29.83;97916.13;5062632;28;19917;-86
2023/01/31 07:40:11;;;;;;;;;;;;;;;16.14;30.77;97932.81;5053462;28;19932;-87
2023/01/31 07:42:38;;;;;;;;;;;;;;;15.21;32.64;97944.19;5052879;28;19966;-87
2023/01/31 07:45:05;;;;;;;;;;;;;;;16.92;29.45;97927.75;5052892;28;19917;-86
2023/01/31 07:47:31;;;;;;;;;;;;;;;17.46;29.15;97929.50;5052922;28;19917;-87
2023/01/31 07:49:57;;;;;;;;;;;;;;;15.82;31.12;97945.59;5052907;28;20058;-87
2023/01/31 07:52:23;;;;;;;;;;;;;;;16.12;30.69;97924.09;5052872;28;20007;-88
2023/01/31 07:54:49;;;;;;;;;;;;;;;17.22;29.40;97931.81;5061567;28;20380;-87
2023/01/31 07:57:17;;;;;;;;;;;;;;;16.48;30.71;97941.72;5073115;28;20007;-87
2023/01/31 07:59:44;;;;;;;;;;;;;;;16.86;29.41;97937.63;5073083;28;19931;-87
2023/01/31 08:04:58;;;;;;;;;;;;;;;17.04;28.94;97935.72;5056608;28;19971;-87
2023/01/31 08:07:25;;;;;;;;;;;;;;;18.02;27.95;97943.47;5054734;28;19917;-87
2023/01/31 08:09:51;;;;;;;;;;;;;;;17.81;27.65;97947.03;5056916;28;20015;-87
2023/01/31 08:12:17;;;;;;;;;;;;;;;18.00;27.83;97951.44;5057140;28;19917;-87
2023/01/31 08:14:43;;;;;;;;;;;;;;;17.44;28.98;97951.31;5056237;28;20293;-87
2023/01/31 08:17:09;;;;;;;;;;;;;;;17.13;29.42;97953.59;5056002;28;20253;-87
2023/01/31 08:19:37;;;;;;;;;;;;;;;17.29;29.53;97945.72;5075114;28;19917;-87
2023/01/31 08:22:03;;;;;;;;;;;;;;;16.23;29.27;97949.09;5076186;28;20368;-89
2023/01/31 08:24:30;;;;;;;;;;;;;;;15.90;31.31;97950.00;5074751;28;19947;-88
2023/01/31 08:26:56;;;;;;;;;;;;;;;15.87;31.43;97970.16;5062849;28;19917;-88
2023/01/31 08:29:23;;;;;;;;;;;;;;;16.39;31.01;97967.03;5056585;28;19955;-87
2023/01/31 08:31:50;;;;;;;;;;;;;;;16.63;30.11;97982.25;5056629;28;19921;-87
2023/01/31 08:34:16;;;;;;;;;;;;;;;17.23;29.31;97972.25;5056413;28;19960;-87
2023/01/31 08:36:42;;;;;;;;;;;;;;;16.88;30.28;97985.16;5056336;28;19963;-87
2023/01/31 08:39:08;;;;;;;;;;;;;;;18.19;27.63;97984.38;5056198;28;20015;-87
2023/01/31 08:41:35;;;;;;;;;;;;;;;16.25;30.61;97991.03;5055963;28;19916;-88
2023/01/31 08:44:03;;;;;;;;;;;;;;;17.03;28.68;97973.78;5071203;28;19980;-88
2023/01/31 08:46:30;;;;;;;;;;;;;;;17.78;27.90;97980.38;5065658;28;19966;-88
2023/01/31 08:48:56;;;;;;;;;;;;;;;15.94;30.55;97991.59;5075196;28;19999;-89
2023/01/31 08:51:22;;;;;;;;;;;;;;;15.59;32.23;97989.25;5074003;28;20007;-88
2023/01/31 08:53:48;;;;;;;;;;;;;;;15.57;31.59;97975.78;5075698;28;20350;-88
2023/01/31 08:56:14;;;;;;;;;;;;;;;17.47;29.09;97986.59;5075599;28;19970;-87
2023/01/31 08:58:41;;;;;;;;;;;;;;;16.89;28.87;97976.47;5075583;28;19975;-87
2023/01/31 09:01:09;;;;;;;;;;;;;;;17.16;28.56;98002.75;5074774;28;19920;-87
2023/01/31 09:03:35;;;;;;;;;;;;;;;17.53;29.04;97990.59;5060324;28;19917;-87
2023/01/31 09:06:03;;;;;;;;;;;;;;;17.00;28.53;97995.94;5055454;28;20294;-88
2023/01/31 09:08:30;;;;;;;;;;;;;;;16.78;29.41;97997.00;5055600;28;20345;-88
2023/01/31 09:10:57;;;;;;;;;;;;;;;17.47;28.58;98008.81;5055328;28;19917;-87
2023/01/31 09:13:23;;;;;;;;;;;;;;;17.75;28.20;97997.81;5055364;28;19924;-88
2023/01/31 09:15:58;;;;;;;;;;;;;;;16.04;30.56;98004.72;5054945;28;19946;-87
2023/01/31 09:18:24;;;;;;;;;;;;;;;16.90;29.76;98005.78;5054718;28;20384;-87
2023/01/31 09:20:50;;;;;;;;;;;;;;;16.73;29.54;98022.31;5056791;28;20372;-88
2023/01/31 09:23:18;;;;;;;;;;;;;;;16.73;30.08;98003.72;5055017;28;19960;-87
2023/01/31 09:25:50;;;;;;;;;;;;;;;16.98;30.12;98009.38;5054657;28;19960;-88
2023/01/31 09:28:16;;;;;;;;;;;;;;;18.28;28.09;97993.09;5055002;28;19956;-88
2023/01/31 09:30:42;;;;;;;;;;;;;;;18.10;27.95;98003.44;5054639;28;19986;-88
2023/01/31 09:33:08;;;;;;;;;;;;;;;16.62;29.74;98004.81;5055021;28;19917;-88
2023/01/31 09:35:34;;;;;;;;;;;;;;;15.31;31.77;98009.06;5055450;28;19917;-89
2023/01/31 09:38:00;;;;;;;;;;;;;;;16.61;29.74;98004.03;5073172;28;20268;-88
2023/01/31 09:40:27;;;;;;;;;;;;;;;17.07;29.41;98002.31;5075279;28;19916;-88
2023/01/31 09:42:54;;;;;;;;;;;;;;;15.77;31.05;98009.63;5074666;28;19948;-88
2023/01/31 09:45:27;;;;;;;;;;;;;;;17.40;29.03;98008.78;5074256;28;19944;-88
2023/01/31 09:47:55;;;;;;;;;;;;;;;18.40;27.10;98001.06;5070096;28;20436;-88
2023/01/31 09:50:26;;;;;;;;;;;;;;;17.87;27.58;98001.03;5054612;28;19917;-88
2023/01/31 09:52:52;;;;;;;;;;;;;;;16.57;29.41;98015.06;5057226;28;20012;-88
2023/01/31 09:55:23;;;;;;;;;;;;;;;16.06;30.80;98016.19;5054739;28;19924;-88
2023/01/31 09:58:03;;;;;;;;;;;;;;;14.59;34.07;98016.78;5054519;28;20491;-87
2023/01/31 10:00:29;;;;;;;;;;;;;;;14.41;34.75;98011.00;5054284;28;20339;-88
2023/01/31 10:02:55;;;;;;;;;;;;;;;14.96;33.47;98016.94;5054435;28;19912;-87
2023/01/31 10:05:21;;;;;;;;;;;;;;;14.87;33.48;98017.19;5054731;28;19917;-88
2023/01/31 10:07:59;;;;;;;;;;;;;;;15.62;33.42;98008.66;5054499;28;20387;-88
2023/01/31 10:10:31;;;;;;;;;;;;;;;17.30;29.77;98018.66;5055150;28;19916;-87
2023/01/31 10:12:59;;;;;;;;;;;;;;;17.96;28.50;98011.75;5054033;28;19917;-87
2023/01/31 10:15:35;;;;;;;;;;;;;;;18.31;28.87;98010.97;5054348;28;19963;-87
2023/01/31 10:18:05;;;;;;;;;;;;;;;19.07;27.44;98005.72;5054080;28;19917;-87
2023/01/31 10:20:34;;;;;;;;;;;;;;;19.10;27.01;98002.16;5053728;28;19956;-87
2023/01/31 10:23:12;;;;;;;;;;;;;;;16.67;30.86;98019.09;5054064;28;19948;-88
2023/01/31 10:25:38;;;;;;;;;;;;;;;17.71;28.72;98019.25;5053726;28;20431;-87
2023/01/31 10:28:10;;;;;;;;;;;;;;;18.40;27.96;98016.94;5059626;28;19925;-87
2023/01/31 10:30:42;;;;;;;;;;;;;;;16.40;31.34;98017.69;5053256;28;19925;-88
2023/01/31 10:33:28;;;;;;;;;;;;;;;16.64;30.15;98008.78;5053649;28;19916;-88
2023/01/31 10:35:56;;;;;;;;;;;;;;;16.22;31.46;98027.84;5054112;28;19917;-88
2023/01/31 10:38:28;;;;;;;;;;;;;;;17.05;30.22;98017.75;5054082;28;19924;-88
2023/01/31 10:41:05;;;;;;;;;;;;;;;16.68;30.50;98023.47;5054060;28;19943;-88
2023/01/31 10:43:36;;;;;;;;;;;;;;;17.56;30.15;98018.41;5053676;28;19963;-88
2023/01/31 10:46:08;;;;;;;;;;;;;;;17.06;30.19;98014.56;5072970;28;19916;-88
2023/01/31 10:48:34;;;;;;;;;;;;;;;17.04;29.91;98016.94;5063764;28;19924;-88
2023/01/31 10:51:00;;;;;;;;;;;;;;;17.43;28.69;98016.34;5053455;28;20369;-88
2023/01/31 10:53:45;;;;;;;;;;;;;;;16.15;30.28;98017.47;5053973;28;19917;-88
2023/01/31 10:56:22;;;;;;;;;;;;;;;17.03;29.54;98020.91;5073736;28;19923;-88
2023/01/31 10:58:49;;;;;;;;;;;;;;;17.57;28.53;98020.00;5073653;28;19928;-88
2023/01/31 11:01:15;;;;;;;;;;;;;;;17.38;28.73;98028.63;5072869;28;19962;-88
2023/01/31 11:03:46;;;;;;;;;;;;;;;16.37;30.85;98027.56;5073931;28;19916;-88
2023/01/31 11:06:13;;;;;;;;;;;;;;;16.64;30.03;98014.31;5072596;28;20010;-88
2023/01/31 11:08:44;;;;;;;;;;;;;;;17.08;29.63;98017.75;5073726;28;19916;-89
2023/01/31 11:11:12;;;;;;;;;;;;;;;17.67;29.43;98002.56;5071698;28;19929;-88
2023/01/31 11:13:39;;;;;;;;;;;;;;;16.74;29.41;98004.47;5054063;28;19920;-89
2023/01/31 11:16:07;;;;;;;;;;;;;;;16.80;29.77;98012.06;5053634;28;20006;-89
2023/01/31 11:18:42;;;;;;;;;;;;;;;16.81;28.91;98008.09;5060404;28;19920;-89
2023/01/31 11:21:09;;;;;;;;;;;;;;;16.91;28.93;98007.38;5072279;28;20284;-88
2023/01/31 11:23:35;;;;;;;;;;;;;;;17.60;28.92;98008.09;5053207;28;19924;-89
2023/01/31 11:26:02;;;;;;;;;;;;;;;17.45;28.14;98025.88;5053399;28;19917;-88
2023/01/31 11:28:35;;;;;;;;;;;;;;;18.33;28.00;98025.25;5053167;28;19917;-88
2023/01/31 11:31:03;;;;;;;;;;;;;;;16.19;31.22;98034.13;5053053;28;19917;-89
2023/01/31 11:33:40;;;;;;;;;;;;;;;16.79;30.36;98012.44;5053480;28;20053;-88
2023/01/31 11:36:09;;;;;;;;;;;;;;;17.55;29.05;98018.78;5054062;28;19916;-88
2023/01/31 11:38:35;;;;;;;;;;;;;;;17.42;28.53;98017.50;5053154;28;19917;-89
2023/01/31 11:41:21;;;;;;;;;;;;;;;17.21;28.85;98013.47;5054620;28;20047;-89
2023/01/31 11:43:47;;;;;;;;;;;;;;;16.68;29.40;98014.34;5055928;28;19917;-88
2023/01/31 11:46:13;;;;;;;;;;;;;;;16.05;30.91;98020.16;5058102;28;19921;-89
2023/01/31 11:48:41;;;;;;;;;;;;;;;17.65;28.74;98020.78;5076266;28;19929;-88
2023/01/31 11:51:08;;;;;;;;;;;;;;;16.68;29.95;98017.94;5076760;28;20292;-89
2023/01/31 11:53:34;;;;;;;;;;;;;;;17.26;29.69;98013.09;5062019;28;20280;-88
2023/01/31 11:56:10;;;;;;;;;;;;;;;15.62;31.85;98011.44;5062530;28;19923;-89
2023/01/31 11:58:38;;;;;;;;;;;;;;;16.40;29.93;98009.38;5066016;28;20372;-88
2023/01/31 12:01:06;;;;;;;;;;;;;;;17.54;28.58;97998.56;5056703;28;19917;-88
2023/01/31 12:03:32;;;;;;;;;;;;;;;17.43;28.62;97994.13;5056844;28;19917;-88
2023/01/31 12:06:08;;;;;;;;;;;;;;;16.71;29.51;98003.28;5056881;28;19924;-88
2023/01/31 12:08:38;;;;;;;;;;;;;;;18.16;27.77;97999.06;5056640;28;20023;-88
2023/01/31 12:11:05;;;;;;;;;;;;;;;19.06;25.86;97991.03;5075930;28;19916;-87
2023/01/31 12:13:43;;;;;;;;;;;;;;;18.29;27.40;97996.69;5076752;28;19942;-88
2023/01/31 12:16:10;;;;;;;;;;;;;;;17.97;27.44;97996.66;5076672;28;19921;-87
2023/01/31 12:18:48;;;;;;;;;;;;;;;18.48;26.60;98001.88;5076862;28;19916;-87
2023/01/31 12:21:15;;;;;;;;;;;;;;;18.85;26.72;97987.50;5074980;28;19916;-88
2023/01/31 12:23:56;;;;;;;;;;;;;;;19.18;25.79;97987.03;5075699;28;20007;-88
2023/01/31 12:26:28;;;;;;;;;;;;;;;19.27;27.13;97979.03;5070684;28;19940;-88
2023/01/31 12:28:54;;;;;;;;;;;;;;;19.04;26.61;97973.94;5055956;28;19925;-88
2023/01/31 12:31:20;;;;;;;;;;;;;;;17.66;27.43;97986.31;5055864;28;19916;-88
2023/01/31 12:33:54;;;;;;;;;;;;;;;19.06;26.00;97979.91;5056109;28;19917;-88
2023/01/31 12:36:20;;;;;;;;;;;;;;;19.50;25.56;97976.56;5056412;28;19912;-88
2023/01/31 12:39:01;;;;;;;;;;;;;;;18.41;27.21;97977.59;5056119;28;19952;-88
2023/01/31 12:41:38;;;;;;;;;;;;;;;18.19;27.88;97980.81;5056739;28;19912;-88
2023/01/31 12:44:23;;;;;;;;;;;;;;;17.68;27.67;97978.38;5066724;28;19924;-88
2023/01/31 12:46:49;;;;;;;;;;;;;;;18.75;25.86;97975.22;5076089;28;20290;-88
2023/01/31 12:49:15;;;;;;;;;;;;;;;17.97;26.36;97971.66;5065016;28;19921;-88
2023/01/31 12:51:44;;;;;;;;;;;;;;;18.35;25.58;97970.88;5055752;28;19917;-88
2023/01/31 12:54:24;;;;;;;;;;;;;;;17.74;27.22;97985.91;5054769;28;19917;-88
2023/01/31 12:57:09;;;;;;;;;;;;;;;18.28;26.45;97983.97;5055810;28;19947;-88
2023/01/31 12:59:45;;;;;;;;;;;;;;;18.27;27.49;97982.41;5055708;28;19924;-87
2023/01/31 13:02:17;;;;;;;;;;;;;;;16.66;28.66;97986.22;5075437;28;19912;-87